createdAt,value
2018-09-22T00:00:07.953Z,14.40
2018-09-22T00:06:12.648Z,14.40
2018-09-22T00:12:16.582Z,14.40
2018-09-22T00:18:20.059Z,14.40
2018-09-22T00:24:23.600Z,14.30
2018-09-22T00:30:27.360Z,14.10
2018-09-22T00:36:31.060Z,13.40
2018-09-22T00:42:35.433Z,13.30
2018-09-22T00:48:39.183Z,13.20
2018-09-22T00:54:43.842Z,13.20
2018-09-22T01:00:48.127Z,13.20
2018-09-22T01:06:51.773Z,13.20
2018-09-22T01:12:56.074Z,13.30
2018-09-22T01:18:59.680Z,13.20
2018-09-22T01:25:03.279Z,13.30
2018-09-22T01:31:07.019Z,13.30
2018-09-22T01:37:10.607Z,13.30
2018-09-22T01:43:14.027Z,13.00
2018-09-22T01:49:17.489Z,12.80
2018-09-22T01:55:20.951Z,12.60
2018-09-22T02:01:25.238Z,12.50
2018-09-22T02:07:29.438Z,12.40
2018-09-22T02:13:33.011Z,12.30
2018-09-22T02:19:36.771Z,12.20
2018-09-22T02:25:41.345Z,12.20
2018-09-22T02:31:45.448Z,12.10
2018-09-22T02:37:49.154Z,12.10
2018-09-22T02:43:52.662Z,12.10
2018-09-22T02:49:56.931Z,12.00
2018-09-22T02:56:00.526Z,12.00
2018-09-22T03:02:04.655Z,12.00
2018-09-22T03:08:09.055Z,12.00
2018-09-22T03:14:12.853Z,12.00
2018-09-22T03:20:17.463Z,12.00
2018-09-22T03:26:21.371Z,12.00
2018-09-22T03:32:25.180Z,12.10
2018-09-22T03:38:29.310Z,12.20
2018-09-22T03:44:33.019Z,12.30
2018-09-22T03:50:37.166Z,12.40
2018-09-22T03:56:41.551Z,12.40
2018-09-22T04:02:45.422Z,12.30
2018-09-22T04:08:49.684Z,12.20
2018-09-22T04:14:54.165Z,12.20
2018-09-22T04:20:57.846Z,12.10
2018-09-22T04:27:01.270Z,12.20
2018-09-22T04:33:05.031Z,12.20
2018-09-22T04:39:09.569Z,12.30
2018-09-22T04:45:13.301Z,12.30
2018-09-22T04:51:17.737Z,12.40
2018-09-22T04:57:22.342Z,12.40
2018-09-22T05:03:26.140Z,12.40
2018-09-22T05:09:30.046Z,12.40
2018-09-22T05:15:34.104Z,12.40
2018-09-22T05:21:37.841Z,12.40
2018-09-22T05:27:41.490Z,12.40
2018-09-22T05:33:45.214Z,12.30
2018-09-22T05:39:50.142Z,12.30
2018-09-22T05:45:54.110Z,12.40
2018-09-22T05:51:58.626Z,12.40
2018-09-22T05:58:03.140Z,12.40
2018-09-22T06:04:07.438Z,12.40
2018-09-22T06:10:13.434Z,12.50
2018-09-22T06:16:17.142Z,12.50
2018-09-22T06:22:21.143Z,12.60
2018-09-22T06:28:25.849Z,12.70
2018-09-22T06:34:29.536Z,12.80
2018-09-22T06:40:33.371Z,12.90
2018-09-22T06:46:37.105Z,13.00
2018-09-22T06:52:40.696Z,13.20
2018-09-22T06:58:44.717Z,13.30
2018-09-22T07:04:48.306Z,13.40
2018-09-22T07:10:52.311Z,13.60
2018-09-22T07:16:55.898Z,13.70
2018-09-22T07:23:05.914Z,13.90
2018-09-22T07:29:09.737Z,14.00
2018-09-22T07:35:13.457Z,14.10
2018-09-22T07:41:17.682Z,14.10
2018-09-22T07:47:21.550Z,14.20
2018-09-22T07:53:25.479Z,14.30
2018-09-22T07:59:30.073Z,14.60
2018-09-22T08:05:33.974Z,14.70
2018-09-22T08:11:39.209Z,14.90
2018-09-22T08:17:42.777Z,15.00
2018-09-22T08:23:46.247Z,15.00
2018-09-22T08:29:50.554Z,15.20
2018-09-22T08:35:54.301Z,15.30
2018-09-22T08:41:57.734Z,15.50
2018-09-22T08:48:01.201Z,15.50
2018-09-22T08:54:04.697Z,15.70
2018-09-22T09:00:08.446Z,15.70
2018-09-22T09:06:12.021Z,15.60
2018-09-22T09:12:15.513Z,15.60
2018-09-22T09:18:19.109Z,15.70
2018-09-22T09:24:22.586Z,15.90
2018-09-22T09:30:26.089Z,16.20
2018-09-22T09:36:29.650Z,16.40
2018-09-22T09:42:33.433Z,16.70
2018-09-22T09:48:37.005Z,17.00
2018-09-22T09:54:41.423Z,17.10
2018-09-22T10:00:45.969Z,17.00
2018-09-22T10:06:49.491Z,17.10
2018-09-22T10:12:53.086Z,17.10
2018-09-22T10:18:56.755Z,17.10
2018-09-22T10:25:00.248Z,17.20
2018-09-22T10:31:03.999Z,17.50
2018-09-22T10:37:07.445Z,17.60
2018-09-22T10:43:11.014Z,17.80
2018-09-22T10:49:14.441Z,17.90
2018-09-22T10:55:17.758Z,17.90
2018-09-22T11:01:23.109Z,18.00
2018-09-22T11:07:26.751Z,18.20
2018-09-22T11:13:30.226Z,18.30
2018-09-22T11:19:33.896Z,18.30
2018-09-22T11:25:37.930Z,18.20
2018-09-22T11:31:41.545Z,18.30
2018-09-22T11:37:44.972Z,18.50
2018-09-22T11:43:55.006Z,18.50
2018-09-22T11:49:58.438Z,18.60
2018-09-22T11:56:01.976Z,18.80
2018-09-22T12:02:05.498Z,18.90
2018-09-22T12:08:09.698Z,18.80
2018-09-22T12:14:13.464Z,18.60
2018-09-22T12:20:17.067Z,18.50
2018-09-22T12:26:21.308Z,18.40
2018-09-22T12:32:25.478Z,18.30
2018-09-22T12:38:29.656Z,18.20
2018-09-22T12:44:33.240Z,18.00
2018-09-22T12:50:36.906Z,17.70
2018-09-22T12:56:40.414Z,17.60
2018-09-22T13:02:43.954Z,17.50
2018-09-22T13:08:50.353Z,17.60
2018-09-22T13:14:53.754Z,17.50
2018-09-22T13:20:57.180Z,17.40
2018-09-22T13:27:00.654Z,17.40
2018-09-22T13:33:04.164Z,17.40
2018-09-22T13:39:11.286Z,17.40
2018-09-22T13:45:15.001Z,17.20
2018-09-22T13:51:18.749Z,17.10
2018-09-22T13:57:22.225Z,16.60
2018-09-22T14:03:25.631Z,16.30
2018-09-22T14:09:29.145Z,16.00
2018-09-22T14:15:33.245Z,15.80
2018-09-22T14:21:36.804Z,15.70
2018-09-22T14:27:40.606Z,15.70
2018-09-22T14:33:44.896Z,15.80
2018-09-22T14:39:48.349Z,15.80
2018-09-22T14:45:53.046Z,15.60
2018-09-22T14:51:56.466Z,15.40
2018-09-22T14:58:00.026Z,15.30
2018-09-22T15:04:03.490Z,15.20
2018-09-22T15:10:07.048Z,15.20
2018-09-22T15:16:10.822Z,15.10
2018-09-22T15:22:14.308Z,15.10
2018-09-22T15:28:17.741Z,15.00
2018-09-22T15:34:22.005Z,14.80
2018-09-22T15:40:25.607Z,14.80
2018-09-22T15:46:29.000Z,14.80
2018-09-22T15:52:32.820Z,14.90
2018-09-22T15:58:37.543Z,14.80
2018-09-22T16:04:41.779Z,14.60
2018-09-22T16:10:45.107Z,14.50
2018-09-22T16:16:48.739Z,14.40
2018-09-22T16:22:53.123Z,14.30
2018-09-22T16:28:57.613Z,14.10
2018-09-22T16:35:01.657Z,14.10
2018-09-22T16:41:05.217Z,14.00
2018-09-22T16:47:08.877Z,14.00
2018-09-22T16:53:13.249Z,13.90
2018-09-22T16:59:17.710Z,13.80
2018-09-22T17:05:21.613Z,13.50
2018-09-22T17:11:25.262Z,13.30
2018-09-22T17:17:30.209Z,13.30
2018-09-22T17:23:33.941Z,13.20
2018-09-22T17:29:37.757Z,13.20
2018-09-22T17:35:42.292Z,13.20
2018-09-22T17:41:46.536Z,13.10
2018-09-22T17:47:50.732Z,13.10
2018-09-22T17:53:55.365Z,13.20
2018-09-22T17:59:59.635Z,13.20
2018-09-22T18:06:03.472Z,13.20
2018-09-22T18:12:07.769Z,13.20
2018-09-22T18:18:12.088Z,13.20
2018-09-22T18:24:16.903Z,13.10
2018-09-22T18:30:20.941Z,13.10
2018-09-22T18:36:25.786Z,13.10
2018-09-22T18:42:31.316Z,13.00
2018-09-22T18:48:36.172Z,12.90
2018-09-22T18:54:40.485Z,12.80
2018-09-22T19:00:44.346Z,12.90
2018-09-22T19:06:48.392Z,12.80
2018-09-22T19:12:57.003Z,12.80
2018-09-22T19:19:04.941Z,12.80
2018-09-22T19:25:13.451Z,12.80
2018-09-22T19:31:22.425Z,12.80
2018-09-22T19:37:32.369Z,12.80
2018-09-22T19:44:47.720Z,12.70
2018-09-22T19:51:04.049Z,12.80
2018-09-22T19:57:08.205Z,12.90
2018-09-22T20:03:13.032Z,12.90
2018-09-22T20:09:17.239Z,12.90
2018-09-22T20:15:22.151Z,12.90
2018-09-22T20:21:27.134Z,12.90
2018-09-22T20:27:31.140Z,12.90
2018-09-22T20:33:35.642Z,12.80
2018-09-22T20:39:40.261Z,12.70
2018-09-22T20:45:45.393Z,12.80
2018-09-22T20:51:53.508Z,12.80
2018-09-22T20:57:57.476Z,12.70
2018-09-22T21:04:02.603Z,12.70
2018-09-22T21:10:06.680Z,12.70
2018-09-22T21:16:10.361Z,12.70
2018-09-22T21:22:14.381Z,12.70
2018-09-22T21:28:18.965Z,12.60
2018-09-22T21:34:23.378Z,12.60
2018-09-22T21:40:27.454Z,12.60
2018-09-22T21:46:31.889Z,12.60
2018-09-22T21:52:35.967Z,12.60
2018-09-22T21:58:40.130Z,12.60
2018-09-22T22:04:44.310Z,12.60
2018-09-22T22:10:48.795Z,12.60
2018-09-22T22:16:53.258Z,12.60
2018-09-22T22:22:57.793Z,12.60
2018-09-22T22:29:03.032Z,12.60
2018-09-22T22:35:07.453Z,12.60
2018-09-22T22:41:12.499Z,12.60
2018-09-22T22:47:16.182Z,12.60
2018-09-22T22:53:20.622Z,12.60
2018-09-22T22:59:24.138Z,12.60
2018-09-22T23:05:27.806Z,12.60
2018-09-22T23:11:32.346Z,12.50
2018-09-22T23:17:37.965Z,12.60
2018-09-22T23:23:43.261Z,12.50
2018-09-22T23:29:47.086Z,12.50
2018-09-22T23:35:51.856Z,12.40
2018-09-22T23:41:57.379Z,12.40
2018-09-22T23:48:01.475Z,12.40
2018-09-22T23:54:06.597Z,12.40
